Time;durP1;ratioP1;P1;durP2;ratioP2;P2;SDS_P1;SDS_P2;PMS_P1;PMS_P2;Temp;Humidity;BMP_temperature;BMP_pressure;BME280_temperature;BME280_humidity;BME280_pressure;Samples;Min_cycle;Max_cycle;Signal;HPM_P1;HPM_P2
2021/12/19 00:04:42;;;;;;;5.30;3.78;;;;;;;;;;5046097;28;20143;-62
2021/12/19 00:09:53;;;;;;;6.95;3.90;;;;;;;;;;5041228;28;20102;-62
2021/12/19 00:12:19;;;;;;;8.38;4.00;;;;;;;;;;5048940;28;20041;-62
2021/12/19 00:14:45;;;;;;;7.05;4.13;;;;;;;;;;5046435;28;20136;-60
2021/12/19 00:17:11;;;;;;;8.63;4.40;;;;;;;;;;5046126;28;20046;-60
2021/12/19 00:19:37;;;;;;;6.40;4.03;;;;;;;;;;5048070;28;20032;-60
2021/12/19 00:22:03;;;;;;;7.20;4.20;;;;;;;;;;5046945;28;20699;-59
2021/12/19 00:24:29;;;;;;;7.32;4.47;;;;;;;;;;5047760;28;20557;-60
2021/12/19 00:26:56;;;;;;;6.28;4.00;;;;;;;;;;5045162;28;20393;-61
2021/12/19 00:29:22;;;;;;;5.82;3.63;;;;;;;;;;5028356;28;20053;-60
2021/12/19 00:31:48;;;;;;;5.07;3.53;;;;;;;;;;5047154;28;20183;-61
2021/12/19 00:34:15;;;;;;;4.95;3.47;;;;;;;;;;5036269;28;20045;-62
2021/12/19 00:36:42;;;;;;;7.28;3.90;;;;;;;;;;5044102;28;20037;-61
2021/12/19 00:39:08;;;;;;;6.10;3.50;;;;;;;;;;5048608;28;20044;-61
2021/12/19 00:41:34;;;;;;;7.05;3.85;;;;;;;;;;5081157;28;20047;-61
2021/12/19 00:44:08;;;;;;;6.32;4.13;;;;;;;;;;5086902;28;20077;-61
2021/12/19 00:46:43;;;;;;;6.35;3.67;;;;;;;;;;5091273;28;20314;-61
2021/12/19 00:49:09;;;;;;;8.60;4.60;;;;;;;;;;5079868;28;20118;-59
2021/12/19 00:51:35;;;;;;;7.95;3.88;;;;;;;;;;5078478;28;20043;-60
2021/12/19 00:54:04;;;;;;;7.88;4.60;;;;;;;;;;5085230;28;20108;-59
2021/12/19 00:56:30;;;;;;;6.22;4.05;;;;;;;;;;5085973;28;20036;-61
2021/12/19 00:58:56;;;;;;;6.72;3.90;;;;;;;;;;5091530;28;20169;-61
2021/12/19 01:01:22;;;;;;;8.65;3.97;;;;;;;;;;5086632;28;20043;-62
2021/12/19 01:03:48;;;;;;;8.38;4.32;;;;;;;;;;5091338;28;20036;-62
2021/12/19 01:06:18;;;;;;;7.35;4.68;;;;;;;;;;5088473;28;20039;-61
2021/12/19 01:08:44;;;;;;;8.82;4.50;;;;;;;;;;5088196;28;20536;-61
2021/12/19 01:11:10;;;;;;;6.80;4.28;;;;;;;;;;5089116;28;20044;-62
2021/12/19 01:13:36;;;;;;;7.68;4.63;;;;;;;;;;5091275;28;20032;-61
2021/12/19 01:16:02;;;;;;;8.32;4.35;;;;;;;;;;5087546;28;20406;-61
2021/12/19 01:18:28;;;;;;;9.02;4.28;;;;;;;;;;5091493;28;20043;-60
2021/12/19 01:20:55;;;;;;;6.82;4.30;;;;;;;;;;5086514;28;20509;-60
2021/12/19 01:23:22;;;;;;;7.80;4.22;;;;;;;;;;5089210;28;20081;-61
2021/12/19 01:25:48;;;;;;;6.80;4.18;;;;;;;;;;5088860;28;20478;-61
2021/12/19 01:28:14;;;;;;;7.78;4.60;;;;;;;;;;5086144;28;20040;-60
2021/12/19 01:30:40;;;;;;;6.47;3.50;;;;;;;;;;5090007;28;20448;-60
2021/12/19 01:33:06;;;;;;;5.63;3.50;;;;;;;;;;5090246;28;20082;-60
2021/12/19 01:35:32;;;;;;;5.68;3.60;;;;;;;;;;5084874;28;20416;-61
2021/12/19 01:37:59;;;;;;;5.78;3.47;;;;;;;;;;5088447;28;20044;-62
2021/12/19 01:40:25;;;;;;;6.20;3.60;;;;;;;;;;5089697;28;20097;-61
2021/12/19 01:42:53;;;;;;;6.72;3.95;;;;;;;;;;5087085;28;20037;-60
2021/12/19 01:45:38;;;;;;;4.47;2.78;;;;;;;;;;5088440;28;20072;-61
2021/12/19 01:48:06;;;;;;;3.90;2.58;;;;;;;;;;5082260;28;20409;-61
2021/12/19 01:50:33;;;;;;;4.03;2.10;;;;;;;;;;5089925;28;20044;-61
2021/12/19 01:53:00;;;;;;;4.55;2.70;;;;;;;;;;5085531;28;20097;-61
2021/12/19 01:55:26;;;;;;;3.72;2.22;;;;;;;;;;5090377;28;20093;-59
2021/12/19 01:57:53;;;;;;;3.33;1.95;;;;;;;;;;5089781;28;20044;-61
2021/12/19 02:00:23;;;;;;;2.60;1.65;;;;;;;;;;5087907;28;20094;-61
2021/12/19 02:02:49;;;;;;;3.55;1.90;;;;;;;;;;5088778;28;20040;-59
2021/12/19 02:05:15;;;;;;;3.22;1.75;;;;;;;;;;5081698;28;20070;-60
2021/12/19 02:07:46;;;;;;;4.22;1.98;;;;;;;;;;5087104;28;20042;-60
2021/12/19 02:10:13;;;;;;;2.25;1.45;;;;;;;;;;5086621;28;20066;-63
2021/12/19 02:12:39;;;;;;;2.53;1.40;;;;;;;;;;5082878;28;20047;-62
2021/12/19 02:15:05;;;;;;;1.77;1.25;;;;;;;;;;5087523;28;20379;-60
2021/12/19 02:17:31;;;;;;;2.63;1.27;;;;;;;;;;5083677;28;20036;-61
2021/12/19 02:19:58;;;;;;;1.80;1.17;;;;;;;;;;5081422;28;20367;-62
2021/12/19 02:22:24;;;;;;;2.03;1.08;;;;;;;;;;5084260;28;20494;-61
2021/12/19 02:24:50;;;;;;;2.08;1.13;;;;;;;;;;5081011;28;20040;-61
2021/12/19 02:27:16;;;;;;;2.53;1.38;;;;;;;;;;5084376;28;20075;-60
2021/12/19 02:29:43;;;;;;;2.42;1.45;;;;;;;;;;5080309;28;20067;-60
2021/12/19 02:32:09;;;;;;;2.13;1.50;;;;;;;;;;5082540;28;20111;-61
2021/12/19 02:34:41;;;;;;;2.58;1.33;;;;;;;;;;5078636;28;20041;-61
2021/12/19 02:37:33;;;;;;;2.50;1.52;;;;;;;;;;5085411;28;20820;-61
2021/12/19 02:48:14;;;;;;;2.00;1.30;;;;;;;;;;5086126;28;20071;-59
2021/12/19 02:50:47;;;;;;;2.22;1.48;;;;;;;;;;5079287;28;20438;-61
2021/12/19 02:53:14;;;;;;;1.67;1.20;;;;;;;;;;5088604;28;20040;-61
2021/12/19 02:55:41;;;;;;;3.05;1.10;;;;;;;;;;5086305;28;20362;-62
2021/12/19 02:58:08;;;;;;;1.77;1.20;;;;;;;;;;5090212;28;20047;-60
2021/12/19 03:00:34;;;;;;;1.50;1.10;;;;;;;;;;5080926;28;20498;-60
2021/12/19 03:03:00;;;;;;;1.70;1.23;;;;;;;;;;5090447;28;20038;-60
2021/12/19 03:05:26;;;;;;;1.10;0.70;;;;;;;;;;5082506;28;20449;-61
2021/12/19 03:07:54;;;;;;;1.67;0.80;;;;;;;;;;5089971;28;20044;-61
2021/12/19 03:10:54;;;;;;;1.35;0.80;;;;;;;;;;5089183;28;20040;-60
2021/12/19 03:18:39;;;;;;;3.95;1.10;;;;;;;;;;5089821;28;20044;-62
2021/12/19 03:21:06;;;;;;;1.70;0.88;;;;;;;;;;5090711;28;20101;-59
2021/12/19 03:23:32;;;;;;;2.80;1.08;;;;;;;;;;5093777;28;20032;-60
2021/12/19 03:25:58;;;;;;;1.38;1.08;;;;;;;;;;5091835;28;20067;-61
2021/12/19 03:28:25;;;;;;;2.00;1.50;;;;;;;;;;5088270;28;20071;-61
2021/12/19 03:30:51;;;;;;;2.05;1.20;;;;;;;;;;5090107;28;20043;-61
2021/12/19 03:33:17;;;;;;;1.40;1.10;;;;;;;;;;5092578;28;20039;-62
2021/12/19 03:35:43;;;;;;;3.17;1.20;;;;;;;;;;5089262;28;20044;-59
2021/12/19 03:38:11;;;;;;;1.60;1.10;;;;;;;;;;5090502;28;20032;-60
2021/12/19 03:40:40;;;;;;;3.50;1.50;;;;;;;;;;5088828;28;20478;-62
2021/12/19 03:43:07;;;;;;;3.47;1.38;;;;;;;;;;5092811;28;20052;-61
2021/12/19 03:45:34;;;;;;;1.92;1.23;;;;;;;;;;5092388;28;20606;-60
2021/12/19 03:48:01;;;;;;;2.15;1.35;;;;;;;;;;5091455;28;20048;-61
2021/12/19 03:50:27;;;;;;;1.95;1.33;;;;;;;;;;5089145;28;20040;-61
2021/12/19 03:52:54;;;;;;;1.80;1.27;;;;;;;;;;5093182;28;20032;-59
2021/12/19 03:55:21;;;;;;;2.08;1.20;;;;;;;;;;5092124;28;20044;-61
2021/12/19 03:57:47;;;;;;;2.78;1.50;;;;;;;;;;5085121;28;20509;-62
2021/12/19 04:00:16;;;;;;;1.98;1.20;;;;;;;;;;5089567;28;20039;-61
2021/12/19 04:02:42;;;;;;;2.75;1.17;;;;;;;;;;5090057;28;20405;-62
2021/12/19 04:05:08;;;;;;;1.63;1.02;;;;;;;;;;5089956;28;20047;-61
2021/12/19 04:07:34;;;;;;;2.28;0.90;;;;;;;;;;5091439;28;20039;-61
2021/12/19 04:10:00;;;;;;;1.55;1.15;;;;;;;;;;5086867;28;20043;-62
2021/12/19 04:12:29;;;;;;;1.45;0.95;;;;;;;;;;5080491;28;20145;-61
2021/12/19 04:14:55;;;;;;;2.45;0.90;;;;;;;;;;5082604;28;20040;-59
2021/12/19 04:17:21;;;;;;;2.00;1.00;;;;;;;;;;5091981;28;20173;-61
2021/12/19 04:19:49;;;;;;;2.78;1.00;;;;;;;;;;5088403;28;20043;-61
2021/12/19 04:22:15;;;;;;;2.95;1.10;;;;;;;;;;5092563;28;20059;-60
2021/12/19 04:24:41;;;;;;;2.25;1.05;;;;;;;;;;5090074;28;20055;-62
2021/12/19 04:27:07;;;;;;;1.33;0.77;;;;;;;;;;5090154;28;20040;-60
2021/12/19 04:29:33;;;;;;;2.50;0.88;;;;;;;;;;5092690;28;20077;-61
2021/12/19 04:31:59;;;;;;;1.42;1.00;;;;;;;;;;5090445;28;20040;-62
2021/12/19 04:34:25;;;;;;;0.93;0.75;;;;;;;;;;5090965;28;20117;-62
2021/12/19 04:36:59;;;;;;;3.80;0.90;;;;;;;;;;5092340;28;20040;-60
2021/12/19 04:39:39;;;;;;;1.20;0.90;;;;;;;;;;5091081;28;20413;-60
2021/12/19 04:58:53;;;;;;;0.77;0.50;;;;;;;;;;5076865;28;20511;-61
2021/12/19 05:03:52;;;;;;;0.32;0.32;;;;;;;;;;5085785;28;20040;-61
2021/12/19 05:14:36;;;;;;;2.65;0.60;;;;;;;;;;5087125;28;20040;-62
2021/12/19 05:17:06;;;;;;;1.70;0.40;;;;;;;;;;5087950;28;20394;-60
2021/12/19 05:19:47;;;;;;;1.15;0.47;;;;;;;;;;5091404;28;20406;-62
2021/12/19 05:22:13;;;;;;;1.13;0.55;;;;;;;;;;5083938;28;20045;-61
2021/12/19 05:24:59;;;;;;;0.85;0.30;;;;;;;;;;5086515;28;20067;-61
2021/12/19 05:27:25;;;;;;;0.60;0.50;;;;;;;;;;5088522;28;20044;-59
2021/12/19 05:29:51;;;;;;;1.00;0.60;;;;;;;;;;5085136;28;20093;-59
2021/12/19 05:32:17;;;;;;;0.98;0.70;;;;;;;;;;5087495;28;20032;-61
2021/12/19 05:34:43;;;;;;;1.73;0.70;;;;;;;;;;5083048;28;20076;-61
2021/12/19 05:45:23;;;;;;;1.88;0.60;;;;;;;;;;5084054;28;20040;-61
2021/12/19 05:47:50;;;;;;;3.95;0.70;;;;;;;;;;5081833;28;20039;-61
2021/12/19 05:50:18;;;;;;;1.08;0.70;;;;;;;;;;5080068;28;20044;-60
2021/12/19 05:52:44;;;;;;;2.47;0.70;;;;;;;;;;5080815;28;20045;-60
2021/12/19 05:55:10;;;;;;;1.23;0.73;;;;;;;;;;5086626;28;20051;-60
2021/12/19 05:57:36;;;;;;;2.78;0.73;;;;;;;;;;5085899;28;20148;-61
2021/12/19 06:00:05;;;;;;;1.95;0.85;;;;;;;;;;5084390;28;20036;-60
2021/12/19 06:02:31;;;;;;;2.92;1.00;;;;;;;;;;5082145;28;20125;-60
2021/12/19 06:04:57;;;;;;;2.35;0.80;;;;;;;;;;5082445;28;20050;-61
2021/12/19 06:07:24;;;;;;;2.10;0.80;;;;;;;;;;5089869;28;20490;-61
2021/12/19 06:09:50;;;;;;;3.53;0.95;;;;;;;;;;5090113;28;20490;-62
2021/12/19 06:12:16;;;;;;;3.50;1.10;;;;;;;;;;5084045;28;20134;-62
2021/12/19 06:14:42;;;;;;;2.70;1.25;;;;;;;;;;5084804;28;20055;-61
2021/12/19 06:17:08;;;;;;;4.28;1.40;;;;;;;;;;5084172;28;20036;-62
2021/12/19 06:19:36;;;;;;;3.47;1.40;;;;;;;;;;5077521;28;20041;-62
2021/12/19 06:22:03;;;;;;;3.72;1.45;;;;;;;;;;5089195;28;20097;-61
2021/12/19 06:24:29;;;;;;;8.13;1.73;;;;;;;;;;5088149;28;20079;-60
2021/12/19 06:26:55;;;;;;;5.60;1.67;;;;;;;;;;5089594;28;20742;-61
2021/12/19 06:29:21;;;;;;;5.00;2.42;;;;;;;;;;5090192;28;20119;-60
2021/12/19 06:31:47;;;;;;;3.22;2.22;;;;;;;;;;5089578;28;20036;-60
2021/12/19 06:34:13;;;;;;;4.93;2.17;;;;;;;;;;5089833;28;20028;-60
2021/12/19 06:36:40;;;;;;;10.30;2.60;;;;;;;;;;5089697;28;20042;-61
2021/12/19 06:39:06;;;;;;;6.90;3.05;;;;;;;;;;5089940;28;20043;-61
2021/12/19 06:41:34;;;;;;;10.68;3.63;;;;;;;;;;5089475;28;20048;-59
2021/12/19 06:44:00;;;;;;;9.98;3.63;;;;;;;;;;5089733;28;20518;-60
2021/12/19 06:46:26;;;;;;;13.95;4.88;;;;;;;;;;5089383;28;20032;-60
2021/12/19 06:48:52;;;;;;;7.68;4.20;;;;;;;;;;5088130;28;20032;-60
2021/12/19 06:51:18;;;;;;;14.98;4.93;;;;;;;;;;5088373;28;20376;-61
2021/12/19 06:53:44;;;;;;;14.50;5.30;;;;;;;;;;5089706;28;20032;-61
2021/12/19 06:56:10;;;;;;;17.08;4.97;;;;;;;;;;5092702;28;20040;-60
2021/12/19 06:58:36;;;;;;;16.42;6.30;;;;;;;;;;5092095;28;20096;-61
2021/12/19 07:01:02;;;;;;;11.75;4.95;;;;;;;;;;5093250;28;20119;-61
2021/12/19 07:03:28;;;;;;;16.27;5.43;;;;;;;;;;5093315;28;20039;-60
2021/12/19 07:05:54;;;;;;;16.13;5.10;;;;;;;;;;5092815;28;20036;-60
2021/12/19 07:08:21;;;;;;;21.38;6.47;;;;;;;;;;5093014;28;20044;-61
2021/12/19 07:10:47;;;;;;;16.67;5.65;;;;;;;;;;5091938;28;20114;-62
2021/12/19 07:13:19;;;;;;;17.08;5.70;;;;;;;;;;5093199;28;20036;-61
2021/12/19 07:15:45;;;;;;;14.57;5.47;;;;;;;;;;5090968;28;20055;-60
2021/12/19 07:18:11;;;;;;;17.27;7.00;;;;;;;;;;5092793;28;20063;-61
2021/12/19 07:20:42;;;;;;;14.02;5.35;;;;;;;;;;5092097;28;20040;-61
2021/12/19 07:23:08;;;;;;;14.80;5.18;;;;;;;;;;5093330;28;20047;-61
2021/12/19 07:25:34;;;;;;;15.27;5.57;;;;;;;;;;5089251;28;20047;-60
2021/12/19 07:28:00;;;;;;;17.63;5.20;;;;;;;;;;5091248;28;20040;-61
2021/12/19 07:30:26;;;;;;;13.88;5.35;;;;;;;;;;5092335;28;20048;-61
2021/12/19 07:32:57;;;;;;;16.30;5.95;;;;;;;;;;5093062;28;20509;-60
2021/12/19 07:35:23;;;;;;;14.10;5.60;;;;;;;;;;5092499;28;20505;-62
2021/12/19 07:37:51;;;;;;;17.27;5.95;;;;;;;;;;5089805;28;20440;-61
2021/12/19 07:40:19;;;;;;;15.85;6.88;;;;;;;;;;5087337;28;20035;-60
2021/12/19 07:42:46;;;;;;;12.88;5.75;;;;;;;;;;5088441;28;20036;-63
2021/12/19 07:45:12;;;;;;;16.35;5.70;;;;;;;;;;5090422;28;20076;-61
2021/12/19 07:47:39;;;;;;;19.17;5.32;;;;;;;;;;5090000;28;20036;-62
2021/12/19 07:50:06;;;;;;;18.58;4.80;;;;;;;;;;5091968;28;20039;-61
2021/12/19 07:52:32;;;;;;;18.35;4.93;;;;;;;;;;5089191;28;20538;-61
2021/12/19 07:54:58;;;;;;;17.67;4.60;;;;;;;;;;5088983;28;20048;-60
2021/12/19 07:57:24;;;;;;;13.68;4.75;;;;;;;;;;5084770;28;20146;-61
2021/12/19 07:59:50;;;;;;;16.30;4.18;;;;;;;;;;5088226;28;20512;-63
2021/12/19 08:02:16;;;;;;;12.20;4.05;;;;;;;;;;5092124;28;20055;-62
2021/12/19 08:04:42;;;;;;;14.25;4.47;;;;;;;;;;5092096;28;20478;-60
2021/12/19 08:07:11;;;;;;;16.75;4.53;;;;;;;;;;5090276;28;20113;-60
2021/12/19 08:09:58;;;;;;;12.95;3.35;;;;;;;;;;5091687;28;20044;-63
2021/12/19 08:12:25;;;;;;;13.95;3.33;;;;;;;;;;5070347;28;20044;-60
2021/12/19 08:14:51;;;;;;;11.15;3.33;;;;;;;;;;5091141;28;20044;-62
2021/12/19 08:17:17;;;;;;;14.35;3.15;;;;;;;;;;5092420;28;20040;-61
2021/12/19 08:19:44;;;;;;;14.45;3.78;;;;;;;;;;5092176;28;20509;-63
2021/12/19 08:22:10;;;;;;;12.45;4.43;;;;;;;;;;5092178;28;20119;-61
2021/12/19 08:24:36;;;;;;;9.60;3.80;;;;;;;;;;5092059;28;20036;-59
2021/12/19 08:27:02;;;;;;;10.73;3.45;;;;;;;;;;5092393;28;20774;-60
2021/12/19 08:29:28;;;;;;;12.07;3.03;;;;;;;;;;5091986;28;20040;-61
2021/12/19 08:31:54;;;;;;;9.18;3.30;;;;;;;;;;5090477;28;20044;-63
2021/12/19 08:34:21;;;;;;;13.52;3.55;;;;;;;;;;5091905;28;20475;-60
2021/12/19 08:36:47;;;;;;;16.33;3.88;;;;;;;;;;5091833;28;20051;-62
2021/12/19 08:39:13;;;;;;;17.48;3.83;;;;;;;;;;5092020;28;20069;-61
2021/12/19 08:41:40;;;;;;;12.40;3.75;;;;;;;;;;5091641;28;20047;-61
2021/12/19 08:44:06;;;;;;;12.23;3.55;;;;;;;;;;5091500;28;20479;-60
2021/12/19 08:46:35;;;;;;;9.40;3.47;;;;;;;;;;5092167;28;20398;-62
2021/12/19 08:49:01;;;;;;;7.82;3.25;;;;;;;;;;5092330;28;20048;-61
2021/12/19 08:51:27;;;;;;;9.35;2.90;;;;;;;;;;5091595;28;20039;-61
2021/12/19 08:53:53;;;;;;;8.65;2.95;;;;;;;;;;5091107;28;20437;-61
2021/12/19 08:56:19;;;;;;;9.38;3.42;;;;;;;;;;5091587;28;20043;-62
2021/12/19 08:58:45;;;;;;;9.35;3.17;;;;;;;;;;5091557;28;20505;-60
2021/12/19 09:01:11;;;;;;;9.98;3.35;;;;;;;;;;5091148;28;20428;-61
2021/12/19 09:03:37;;;;;;;11.52;3.20;;;;;;;;;;5091355;28;20421;-61
2021/12/19 09:06:04;;;;;;;9.05;3.10;;;;;;;;;;5090972;28;20093;-61
2021/12/19 09:08:30;;;;;;;7.35;2.47;;;;;;;;;;5091228;28;20046;-61
2021/12/19 09:10:57;;;;;;;11.32;2.58;;;;;;;;;;5091044;28;20073;-61
2021/12/19 09:13:23;;;;;;;5.93;2.70;;;;;;;;;;5091558;28;20451;-61
2021/12/19 09:15:49;;;;;;;8.00;2.55;;;;;;;;;;5091692;28;20409;-60
2021/12/19 09:18:16;;;;;;;10.27;2.42;;;;;;;;;;5090763;28;20040;-60
2021/12/19 09:20:42;;;;;;;9.02;2.90;;;;;;;;;;5090993;28;20035;-61
2021/12/19 09:23:08;;;;;;;8.98;2.33;;;;;;;;;;5072781;28;20044;-62
2021/12/19 09:25:35;;;;;;;6.80;2.67;;;;;;;;;;5089537;28;20047;-62
2021/12/19 09:28:01;;;;;;;8.93;2.85;;;;;;;;;;5089613;28;20727;-62
2021/12/19 09:30:27;;;;;;;8.27;2.65;;;;;;;;;;5088025;28;20044;-59
2021/12/19 09:32:54;;;;;;;13.10;2.90;;;;;;;;;;5091116;28;20145;-60
2021/12/19 09:35:20;;;;;;;11.95;3.13;;;;;;;;;;5089466;28;20040;-60
2021/12/19 09:37:46;;;;;;;9.07;2.97;;;;;;;;;;5090783;28;20036;-61
2021/12/19 09:40:17;;;;;;;12.90;3.22;;;;;;;;;;5090188;28;20389;-61
2021/12/19 09:42:48;;;;;;;8.18;4.00;;;;;;;;;;5090705;28;20039;-60
2021/12/19 09:45:15;;;;;;;14.75;2.80;;;;;;;;;;5090285;28;20444;-61
2021/12/19 09:47:42;;;;;;;10.50;2.70;;;;;;;;;;5089996;28;20043;-61
2021/12/19 09:50:08;;;;;;;9.93;3.38;;;;;;;;;;5090026;28;20447;-60
2021/12/19 09:52:35;;;;;;;9.65;3.10;;;;;;;;;;5090224;28;20044;-61
2021/12/19 09:55:01;;;;;;;8.50;2.45;;;;;;;;;;5089975;28;20406;-61
2021/12/19 09:57:28;;;;;;;11.57;2.72;;;;;;;;;;5087387;28;20044;-60
2021/12/19 09:59:55;;;;;;;7.93;2.38;;;;;;;;;;5089810;28;20040;-62
2021/12/19 10:02:21;;;;;;;12.77;2.60;;;;;;;;;;5089768;28;20044;-62
2021/12/19 10:04:48;;;;;;;6.38;3.47;;;;;;;;;;5091061;28;20040;-61
2021/12/19 10:07:14;;;;;;;13.68;2.78;;;;;;;;;;5089830;28;20079;-62
2021/12/19 10:09:51;;;;;;;8.02;2.92;;;;;;;;;;5090657;28;20044;-61
2021/12/19 10:15:01;;;;;;;7.90;2.75;;;;;;;;;;5089926;28;20043;-60
2021/12/19 10:17:27;;;;;;;10.75;2.60;;;;;;;;;;5090130;28;20039;-61
2021/12/19 10:19:54;;;;;;;15.68;2.38;;;;;;;;;;5089967;28;20417;-60
2021/12/19 10:22:30;;;;;;;6.25;2.05;;;;;;;;;;5090133;28;20040;-62
2021/12/19 10:24:58;;;;;;;12.15;2.30;;;;;;;;;;5090841;28;20059;-60
2021/12/19 10:27:52;;;;;;;9.27;2.17;;;7.70;99.90;;;;;;5090335;28;20114;-61
2021/12/19 10:30:29;;;;;;;9.52;2.53;;;;;;;;;;5086277;28;20048;-61
2021/12/19 10:32:55;;;;;;;6.43;1.83;;;;;;;;;;5090426;28;20036;-61
2021/12/19 10:35:23;;;;;;;8.40;2.25;;;;;;;;;;5090277;28;20040;-61
2021/12/19 10:37:49;;;;;;;6.53;1.83;;;;;;;;;;5089844;28;20552;-60
2021/12/19 10:40:16;;;;;;;8.05;2.13;;;;;;;;;;5088519;28;20040;-61
2021/12/19 10:42:46;;;;;;;10.43;2.50;;;;;;;;;;5089804;28;20043;-60
2021/12/19 10:45:32;;;;;;;7.90;2.75;;;;;;;;;;5089679;28;20044;-61
2021/12/19 10:48:11;;;;;;;6.80;2.00;;;;;;;;;;5089757;28;20075;-62
2021/12/19 10:50:41;;;;;;;8.35;2.35;;;;;;;;;;5089398;28;20555;-60
2021/12/19 10:53:07;;;;;;;10.02;2.25;;;;;;;;;;5089970;28;20433;-61
2021/12/19 10:55:33;;;;;;;6.88;2.42;;;;;;;;;;5089779;28;20067;-60
2021/12/19 10:58:00;;;;;;;11.23;3.08;;;;;;;;;;5089609;28;20050;-62
2021/12/19 11:00:27;;;;;;;10.05;3.55;;;;;;;;;;5089463;28;20043;-61
2021/12/19 11:02:53;;;;;;;13.75;2.78;;;;;;;;;;5090112;28;20750;-60
2021/12/19 11:05:42;;;;;;;11.85;3.28;;;;;;;;;;5089440;28;20039;-62
2021/12/19 11:08:09;;;;;;;8.25;2.05;;;;;;;;;;5090045;28;20043;-62
2021/12/19 11:10:36;;;;;;;6.93;2.47;;;;;;;;;;5090600;28;20044;-61
2021/12/19 11:13:14;;;;;;;6.72;2.65;;;;;;;;;;5090279;28;20054;-60
2021/12/19 11:15:42;;;;;;;8.82;2.50;;;;;;;;;;5089378;28;20056;-61
2021/12/19 11:18:08;;;;;;;12.70;2.22;;;;;;;;;;5089582;28;20101;-61
2021/12/19 11:20:34;;;;;;;8.88;2.35;;;;;;;;;;5085987;28;20122;-61
2021/12/19 11:23:00;;;;;;;5.90;2.50;;;;;;;;;;5088947;28;20039;-61
2021/12/19 11:25:26;;;;;;;9.65;2.58;;;;;;;;;;5088984;28;20039;-61
2021/12/19 11:27:53;;;;;;;12.52;2.58;;;;;;;;;;5088934;28;20039;-61
2021/12/19 11:30:19;;;;;;;13.13;2.85;;;;;;;;;;5089891;28;20367;-62
2021/12/19 11:33:29;;;;;;;8.95;2.65;;;7.60;99.90;;;;;;5088677;28;20075;-61
2021/12/19 11:35:55;;;;;;;7.80;2.30;;;;;;;;;;5089767;28;20032;-61
2021/12/19 11:38:23;;;;;;;12.52;3.17;;;;;;;;;;5089385;28;20032;-60
2021/12/19 11:40:51;;;;;;;10.13;2.90;;;;;;;;;;5090912;28;20054;-61
2021/12/19 11:43:17;;;;;;;14.60;2.63;;;;;;;;;;5093775;28;20475;-61
2021/12/19 11:48:34;;;;;;;8.23;2.15;;;;;;;;;;5093548;28;20123;-61
2021/12/19 11:51:05;;;;;;;9.02;2.15;;;;;;;;;;5093181;28;20038;-61
2021/12/19 11:53:32;;;;;;;15.45;2.63;;;;;;;;;;5093389;28;20036;-60
2021/12/19 11:56:06;;;;;;;10.30;2.25;;;;;;;;;;5093314;28;20051;-61
2021/12/19 11:58:45;;;;;;;8.75;2.17;;;;;;;;;;5093329;28;20465;-62
2021/12/19 12:01:12;;;;;;;9.18;2.35;;;;;;;;;;5093405;28;20398;-59
2021/12/19 12:03:42;;;;;;;14.23;3.13;;;;;;;;;;5092128;28;20044;-61
2021/12/19 12:06:15;;;;;;;12.73;2.58;;;;;;;;;;5093232;28;20044;-62
2021/12/19 12:09:01;;;;;;;8.05;2.17;;;;;;;;;;5093168;28;20056;-59
2021/12/19 12:11:27;;;;;;;8.48;1.77;;;;;;;;;;5092725;28;20051;-60
2021/12/19 12:13:53;;;;;;;8.23;2.45;;;;;;;;;;5093058;28;20079;-61
2021/12/19 12:16:31;;;;;;;7.70;2.33;;;;;;;;;;5091901;28;20069;-61
2021/12/19 12:18:57;;;;;;;12.88;3.08;;;;;;;;;;5093176;28;20035;-61
2021/12/19 12:21:34;;;;;;;10.05;2.83;;;;;;;;;;5093138;28;20032;-60
2021/12/19 12:24:05;;;;;;;11.52;2.45;;;;;;;;;;5093055;28;20071;-61
2021/12/19 12:26:48;;;;;;;10.60;2.42;;;;;;;;;;5093083;28;20050;-62
2021/12/19 12:29:14;;;;;;;11.00;1.80;;;;;;;;;;5092909;28;20040;-62
2021/12/19 12:31:42;;;;;;;15.57;2.17;;;;;;;;;;5092722;28;20111;-60
2021/12/19 12:34:09;;;;;;;10.65;2.60;;;;;;;;;;5092965;28;20390;-62
2021/12/19 12:36:35;;;;;;;10.52;2.75;;;;;;;;;;5092480;28;20571;-61
2021/12/19 12:39:05;;;;;;;7.78;2.10;;;;;;;;;;5092691;28;20035;-61
2021/12/19 12:44:05;;;;;;;9.10;1.88;;;;;;;;;;5092764;28;20517;-60
2021/12/19 12:46:31;;;;;;;12.30;1.85;;;;;;;;;;5092646;28;20036;-60
2021/12/19 12:49:00;;;;;;;17.98;1.90;;;;;;;;;;5092306;28;20132;-60
2021/12/19 12:51:27;;;;;;;9.57;1.98;;;;;;;;;;5092441;28;20075;-60
2021/12/19 12:53:56;;;;;;;13.88;2.22;;;;;;;;;;5091061;28;20073;-61
2021/12/19 12:56:24;;;;;;;6.68;2.03;;;;;;;;;;5092475;28;20050;-60
2021/12/19 12:58:51;;;;;;;13.18;1.88;;;;;;;;;;5092277;28;20043;-60
2021/12/19 13:01:23;;;;;;;11.10;1.98;;;;;;;;;;5092275;28;20043;-60
2021/12/19 13:04:03;;;;;;;8.35;2.28;;;;;;;;;;5092102;28;20048;-61
2021/12/19 13:06:46;;;;;;;7.15;1.77;;;;;;;;;;5092398;28;20417;-60
2021/12/19 13:09:23;;;;;;;;;;;8.00;99.90;;;;;;5092701;28;20108;-61
2021/12/19 13:11:53;;;;;;;9.98;2.10;;;;;;;;;;5086033;28;19920;-61
2021/12/19 13:14:23;;;;;;;7.68;1.67;;;;;;;;;;5091433;28;20044;-61
2021/12/19 13:16:56;;;;;;;9.75;2.28;;;;;;;;;;5091364;28;20036;-61
2021/12/19 13:19:33;;;;;;;7.03;1.80;;;;;;;;;;5092022;28;20039;-61
2021/12/19 13:21:59;;;;;;;13.25;2.38;;;;;;;;;;5091544;28;20040;-61
2021/12/19 13:24:25;;;;;;;10.43;1.90;;;;;;;;;;5091703;28;20071;-61
2021/12/19 13:27:04;;;;;;;8.88;1.98;;;;;;;;;;5091411;28;20078;-59
2021/12/19 13:29:30;;;;;;;14.00;3.00;;;;;;;;;;5091354;28;20118;-60
2021/12/19 13:32:34;;;;;;;11.27;1.58;;;7.80;99.90;;;;;;5091026;28;20071;-60
2021/12/19 13:35:03;;;;;;;13.95;1.67;;;;;;;;;;5090052;28;20052;-60
2021/12/19 13:37:33;;;;;;;10.40;1.83;;;;;;;;;;5091310;28;20036;-59
2021/12/19 13:40:00;;;;;;;12.23;2.28;;;;;;;;;;5090996;28;20131;-61
2021/12/19 13:42:40;;;;;;;13.50;2.20;;;;;;;;;;5091174;28;20093;-62
2021/12/19 13:45:21;;;;;;;14.48;1.92;;;;;;;;;;5090047;28;20131;-59
2021/12/19 13:47:47;;;;;;;16.17;2.13;;;;;;;;;;5090314;28;20047;-61
2021/12/19 13:50:14;;;;;;;8.68;2.72;;;;;;;;;;5091337;28;20440;-60
2021/12/19 13:52:40;;;;;;;11.20;2.28;;;;;;;;;;5091621;28;20044;-61
2021/12/19 13:55:07;;;;;;;11.48;2.33;;;;;;;;;;5090808;28;20052;-60
2021/12/19 13:57:33;;;;;;;14.85;2.72;;;;;;;;;;5073459;28;20036;-60
2021/12/19 13:59:59;;;;;;;15.75;2.92;;;;;;;;;;5090984;28;20135;-61
2021/12/19 14:02:25;;;;;;;15.43;2.75;;;;;;;;;;5090070;28;20040;-60
2021/12/19 14:04:51;;;;;;;14.82;3.03;;;;;;;;;;5091144;28;20047;-60
2021/12/19 14:07:20;;;;;;;14.68;2.38;;;;;;;;;;5091208;28;20046;-61
2021/12/19 14:09:47;;;;;;;11.77;2.60;;;;;;;;;;5091237;28;20517;-61
2021/12/19 14:12:23;;;;;;;13.57;2.30;;;;;;;;;;5090759;28;20044;-61
2021/12/19 14:14:50;;;;;;;14.50;2.40;;;;;;;;;;5090878;28;20048;-61
2021/12/19 14:17:16;;;;;;;13.85;2.42;;;;;;;;;;5089526;28;20040;-59
2021/12/19 14:19:43;;;;;;;17.42;2.40;;;;;;;;;;5091019;28;20036;-61
2021/12/19 14:22:10;;;;;;;18.38;2.40;;;;;;;;;;5090845;28;20114;-60
2021/12/19 14:24:41;;;;;;;14.52;2.70;;;;;;;;;;5090995;28;20047;-61
2021/12/19 14:27:15;;;;;;;15.38;2.30;;;;;;;;;;5089261;28;20051;-61
2021/12/19 14:29:46;;;;;;;20.92;3.35;;;;;;;;;;5091257;28;20040;-60
2021/12/19 14:32:13;;;;;;;13.48;3.40;;;;;;;;;;5090864;28;20047;-62
2021/12/19 14:34:40;;;;;;;14.80;2.25;;;;;;;;;;5090906;28;20494;-61
2021/12/19 14:37:15;;;;;;;9.50;1.77;;;;;;;;;;5090587;28;20470;-61
2021/12/19 14:39:41;;;;;;;13.48;2.55;;;;;;;;;;5090768;28;20046;-60
2021/12/19 14:42:11;;;;;;;12.02;2.30;;;;;;;;;;5090699;28;20123;-60
2021/12/19 14:44:38;;;;;;;12.82;2.15;;;;;;;;;;5090748;28;20451;-61
2021/12/19 14:47:05;;;;;;;19.08;2.40;;;;;;;;;;5090580;28;20040;-61
2021/12/19 14:49:38;;;;;;;17.85;3.00;;;;;;;;;;5090719;28;20032;-62
2021/12/19 14:52:04;;;;;;;18.63;3.20;;;;;;;;;;5090568;28;20043;-59
2021/12/19 14:54:30;;;;;;;14.98;2.10;;;;;;;;;;5090511;28;20044;-60
2021/12/19 14:56:57;;;;;;;16.90;2.85;;;;;;;;;;5090935;28;20131;-61
2021/12/19 14:59:27;;;;;;;9.57;2.13;;;;;;;;;;5090299;28;20044;-61
2021/12/19 15:01:54;;;;;;;15.55;2.63;;;;;;;;;;5089126;28;20378;-61
2021/12/19 15:04:23;;;;;;;13.02;2.78;;;;;;;;;;5088468;28;20482;-61
2021/12/19 15:06:57;;;;;;;17.02;2.10;;;;;;;;;;5088649;28;20052;-60
2021/12/19 15:09:24;;;;;;;14.43;2.85;;;;;;;;;;5088586;28;20063;-62
2021/12/19 15:11:50;;;;;;;23.77;2.40;;;;;;;;;;5090127;28;20044;-59
2021/12/19 15:14:17;;;;;;;17.58;2.72;;;;;;;;;;5090348;28;20110;-61
2021/12/19 15:16:43;;;;;;;17.42;2.80;;;;;;;;;;5092475;28;20055;-60
2021/12/19 15:19:09;;;;;;;19.33;2.20;;;;;;;;;;5093735;28;20040;-60
2021/12/19 15:21:36;;;;;;;10.63;2.03;;;;;;;;;;5093636;28;20085;-61
2021/12/19 15:24:03;;;;;;;12.55;2.28;;;;;;;;;;5094164;28;20059;-61
2021/12/19 15:26:29;;;;;;;10.73;1.70;;;;;;;;;;5094011;28;20032;-60
2021/12/19 15:28:55;;;;;;;16.33;2.08;;;;;;;;;;5094030;28;20126;-61
2021/12/19 15:31:23;;;;;;;12.60;2.15;;;;;;;;;;5093609;28;20051;-60
2021/12/19 15:33:50;;;;;;;13.23;1.73;;;;;;;;;;5093425;28;20032;-60
2021/12/19 15:36:16;;;;;;;15.82;1.80;;;;;;;;;;5093820;28;20032;-60
2021/12/19 15:38:43;;;;;;;10.07;1.83;;;;;;;;;;5093848;28;20047;-59
2021/12/19 15:41:09;;;;;;;10.02;1.50;;;;;;;;;;5093916;28;20024;-62
2021/12/19 15:43:35;;;;;;;10.63;1.88;;;;;;;;;;5093598;28;20117;-61
2021/12/19 15:46:01;;;;;;;12.75;1.63;;;;;;;;;;5093907;28;20036;-59